Time;durP1;ratioP1;P1;durP2;ratioP2;P2;SDS_P1;SDS_P2;PMS_P1;PMS_P2;Temp;Humidity;BMP_temperature;BMP_pressure;BME280_temperature;BME280_humidity;BME280_pressure;Samples;Min_cycle;Max_cycle;Signal;HPM_P1;HPM_P2
2023/01/20 00:00:29;;;;;;;14.83;8.10;;;1.20;99.90;;;;;;5098734;28;20126;-79
2023/01/20 00:02:55;;;;;;;15.87;7.87;;;1.20;99.90;;;;;;5098852;28;20045;-79
2023/01/20 00:05:21;;;;;;;15.63;8.53;;;1.10;99.90;;;;;;5095222;28;20512;-79
2023/01/20 00:07:46;;;;;;;15.00;7.77;;;1.10;99.90;;;;;;5095639;28;20118;-79
2023/01/20 00:10:12;;;;;;;13.37;6.83;;;1.10;99.90;;;;;;5113283;28;20032;-79
2023/01/20 00:12:38;;;;;;;13.33;6.70;;;1.10;99.90;;;;;;5095591;28;20026;-79
2023/01/20 00:15:05;;;;;;;14.93;7.23;;;1.10;99.90;;;;;;5095602;28;20024;-79
2023/01/20 00:17:30;;;;;;;12.63;7.00;;;1.10;99.90;;;;;;5094598;28;20400;-79
2023/01/20 00:19:56;;;;;;;15.20;7.13;;;1.10;99.90;;;;;;5113699;28;20024;-79
2023/01/20 00:22:22;;;;;;;13.53;7.50;;;1.10;99.90;;;;;;5114933;28;20043;-78
2023/01/20 00:24:47;;;;;;;13.97;6.90;;;1.00;99.90;;;;;;5100059;28;20020;-78
2023/01/20 00:27:15;;;;;;;15.20;7.03;;;1.00;99.90;;;;;;5099220;28;20030;-79
2023/01/20 00:29:43;;;;;;;13.00;6.80;;;1.00;99.90;;;;;;5118009;28;20154;-79
2023/01/20 00:32:11;;;;;;;12.67;6.60;;;1.00;99.90;;;;;;5099196;28;20027;-81
2023/01/20 00:34:37;;;;;;;12.83;6.57;;;1.00;99.90;;;;;;5096391;28;20024;-79
2023/01/20 00:37:03;;;;;;;13.87;6.20;;;0.90;99.90;;;;;;5097236;28;20039;-78
2023/01/20 00:39:28;;;;;;;13.43;6.00;;;0.90;99.90;;;;;;5078826;28;20503;-79
2023/01/20 00:41:54;;;;;;;12.10;6.30;;;0.90;99.90;;;;;;5111970;28;20391;-78
2023/01/20 00:44:20;;;;;;;11.53;6.17;;;0.90;99.90;;;;;;5117349;28;20027;-78
2023/01/20 00:46:45;;;;;;;11.13;6.47;;;0.90;99.90;;;;;;5099716;28;20380;-78
2023/01/20 00:49:11;;;;;;;15.53;6.23;;;1.00;99.90;;;;;;5087695;28;20088;-78
2023/01/20 00:51:37;;;;;;;11.97;5.83;;;1.00;99.90;;;;;;5117606;28;20051;-78
2023/01/20 00:54:03;;;;;;;11.10;6.27;;;0.90;99.90;;;;;;5099545;28;20020;-78
2023/01/20 00:56:28;;;;;;;10.90;6.47;;;1.00;99.90;;;;;;5098999;28;20256;-79
2023/01/20 00:58:54;;;;;;;14.13;6.43;;;1.00;99.90;;;;;;5116976;28;20039;-79
2023/01/20 01:01:21;;;;;;;10.40;6.40;;;1.00;99.90;;;;;;5116536;28;20019;-79
2023/01/20 01:03:47;;;;;;;12.07;6.47;;;0.90;99.90;;;;;;5099219;28;20084;-78
2023/01/20 01:06:14;;;;;;;11.43;6.03;;;0.80;99.90;;;;;;5098609;28;20426;-79
2023/01/20 01:08:41;;;;;;;13.97;6.17;;;0.80;99.90;;;;;;5098842;28;20019;-78
2023/01/20 01:11:07;;;;;;;12.20;6.33;;;0.80;99.90;;;;;;5099059;28;20032;-78
2023/01/20 01:13:33;;;;;;;13.00;6.23;;;0.80;99.90;;;;;;5098455;28;20073;-78
2023/01/20 01:15:59;;;;;;;12.00;6.50;;;0.80;99.90;;;;;;5099122;28;20039;-78
2023/01/20 01:18:25;;;;;;;11.97;6.20;;;0.80;99.90;;;;;;5086478;28;20105;-78
2023/01/20 01:20:51;;;;;;;14.47;6.77;;;0.90;99.90;;;;;;5116995;28;20419;-78
2023/01/20 01:23:17;;;;;;;12.50;6.50;;;0.90;99.90;;;;;;5098082;28;20035;-78
2023/01/20 01:25:42;;;;;;;12.30;6.33;;;1.00;99.90;;;;;;5098570;28;20023;-78
2023/01/20 01:28:08;;;;;;;12.23;6.53;;;0.90;99.90;;;;;;5098811;28;20028;-78
2023/01/20 01:30:33;;;;;;;12.50;6.13;;;0.90;99.90;;;;;;5098088;28;20111;-78
2023/01/20 01:32:59;;;;;;;10.77;5.50;;;0.80;99.90;;;;;;5116557;28;20031;-78
2023/01/20 01:35:25;;;;;;;11.60;6.43;;;0.80;99.90;;;;;;5115349;28;20030;-78
2023/01/20 01:37:50;;;;;;;8.90;5.50;;;0.90;99.90;;;;;;5098517;28;20042;-78
2023/01/20 01:40:17;;;;;;;14.63;6.20;;;0.90;99.90;;;;;;5116165;28;20461;-79
2023/01/20 01:42:42;;;;;;;11.23;6.03;;;0.90;99.90;;;;;;5098402;28;20019;-78
2023/01/20 01:45:11;;;;;;;13.20;6.63;;;0.90;99.90;;;;;;5116329;28;20028;-77
2023/01/20 01:47:42;;;;;;;11.97;6.47;;;0.80;99.90;;;;;;5091422;28;20024;-78
2023/01/20 01:50:10;;;;;;;14.60;6.73;;;0.80;99.90;;;;;;5112284;28;20139;-78
2023/01/20 01:52:39;;;;;;;11.70;6.17;;;0.90;99.90;;;;;;5116430;28;20506;-78
2023/01/20 01:55:05;;;;;;;11.33;6.33;;;0.80;99.90;;;;;;5116191;28;20028;-78
2023/01/20 01:57:32;;;;;;;10.67;5.67;;;0.80;99.90;;;;;;5097484;28;20191;-78
2023/01/20 01:59:57;;;;;;;13.80;6.00;;;0.80;99.90;;;;;;5097956;28;20059;-79
2023/01/20 02:02:23;;;;;;;11.93;6.47;;;0.80;99.90;;;;;;5115695;28;20031;-78
2023/01/20 02:04:49;;;;;;;10.70;5.70;;;0.80;99.90;;;;;;5097907;28;20046;-77
2023/01/20 02:07:19;;;;;;;11.63;5.83;;;0.70;99.90;;;;;;5097094;28;20038;-78
2023/01/20 02:09:45;;;;;;;10.40;5.63;;;0.70;99.90;;;;;;5097818;28;20088;-77
2023/01/20 02:12:16;;;;;;;12.07;6.00;;;0.70;99.90;;;;;;5097661;28;20024;-78
2023/01/20 02:14:47;;;;;;;11.03;5.67;;;0.70;99.90;;;;;;5081682;28;20024;-78
2023/01/20 02:17:30;;;;;;;9.57;5.57;;;0.80;99.90;;;;;;5093361;28;20032;-79
2023/01/20 02:20:23;;;;;;;11.47;5.67;;;0.60;99.90;;;;;;5110428;28;20034;-78
2023/01/20 02:23:13;;;;;;;9.70;5.50;;;0.60;99.90;;;;;;5082599;28;20046;-78
2023/01/20 02:26:02;;;;;;;13.23;6.00;;;0.60;99.90;;;;;;5097400;28;20027;-78
2023/01/20 02:28:53;;;;;;;10.20;5.60;;;0.50;99.90;;;;;;5115081;28;20027;-78
2023/01/20 02:31:42;;;;;;;9.97;5.67;;;0.60;99.90;;;;;;5115125;28;20381;-79
2023/01/20 02:34:37;;;;;;;12.37;5.50;;;0.60;99.90;;;;;;5097036;28;20019;-78
2023/01/20 02:37:20;;;;;;;10.80;5.37;;;0.60;99.90;;;;;;5076908;28;20032;-78
2023/01/20 02:39:46;;;;;;;10.30;5.77;;;0.60;99.90;;;;;;5108394;28;20460;-78
2023/01/20 02:42:43;;;;;;;10.47;5.77;;;0.60;99.90;;;;;;5115270;28;20023;-79
2023/01/20 02:45:26;;;;;;;10.33;5.20;;;0.60;99.90;;;;;;5063754;28;20426;-78
2023/01/20 02:48:01;;;;;;;13.63;6.50;;;0.60;99.90;;;;;;5096840;28;20388;-77
2023/01/20 02:50:43;;;;;;;12.43;6.03;;;0.70;99.90;;;;;;5096527;28;20057;-79
2023/01/20 02:53:13;;;;;;;9.83;5.50;;;0.70;99.90;;;;;;5096767;28;20076;-78
2023/01/20 02:55:45;;;;;;;9.70;5.37;;;0.60;99.90;;;;;;5115038;28;20059;-78
2023/01/20 02:58:19;;;;;;;9.23;5.43;;;0.70;99.90;;;;;;5114937;28;20027;-78
2023/01/20 03:01:11;;;;;;;11.37;5.70;;;0.60;99.90;;;;;;5081123;28;20034;-78
2023/01/20 03:03:40;;;;;;;9.68;5.70;;;0.60;99.90;;;;;;5113698;28;20476;-78
2023/01/20 03:06:11;;;;;;;12.40;5.53;;;0.60;99.90;;;;;;5096859;28;20056;-79
2023/01/20 03:08:39;;;;;;;10.27;5.38;;;0.60;99.90;;;;;;5114215;28;20098;-79
2023/01/20 03:11:07;;;;;;;8.87;5.20;;;0.50;99.90;;;;;;5114880;28;20074;-79
2023/01/20 03:13:38;;;;;;;10.83;5.17;;;0.50;99.90;;;;;;5096238;28;20027;-79
2023/01/20 03:16:13;;;;;;;9.02;5.22;;;0.60;99.90;;;;;;5096918;28;20099;-79
2023/01/20 03:18:39;;;;;;;10.00;5.07;;;0.60;99.90;;;;;;5090429;28;20047;-79
2023/01/20 03:21:07;;;;;;;9.50;5.10;;;0.70;99.90;;;;;;5096330;28;20376;-79
2023/01/20 03:23:35;;;;;;;9.57;4.80;;;0.60;99.90;;;;;;5096527;28;20040;-79
2023/01/20 03:26:05;;;;;;;9.33;4.47;;;0.70;99.90;;;;;;5096574;28;20168;-78
2023/01/20 03:28:30;;;;;;;8.27;4.30;;;0.70;99.90;;;;;;5114144;28;20034;-79
2023/01/20 03:30:57;;;;;;;8.10;4.30;;;0.70;99.90;;;;;;5096557;28;20087;-78
2023/01/20 03:33:24;;;;;;;8.93;4.63;;;0.70;99.90;;;;;;5114327;28;20358;-79
2023/01/20 03:35:50;;;;;;;8.67;4.70;;;0.70;99.90;;;;;;5096785;28;20028;-79
2023/01/20 03:38:16;;;;;;;9.23;4.33;;;0.70;99.90;;;;;;5114377;28;20047;-81
2023/01/20 03:40:52;;;;;;;8.47;4.47;;;0.70;99.90;;;;;;5096311;28;20034;-79
2023/01/20 03:43:51;;;;;;;11.17;4.17;;;0.70;99.90;;;;;;5096090;28;20034;-81
2023/01/20 03:46:27;;;;;;;9.50;4.00;;;0.70;99.90;;;;;;5107228;28;20481;-79
2023/01/20 03:49:14;;;;;;;7.67;4.20;;;0.60;99.90;;;;;;5096747;28;20051;-77
2023/01/20 03:51:53;;;;;;;9.47;3.93;;;0.60;99.90;;;;;;5096452;28;20138;-78
2023/01/20 03:54:25;;;;;;;7.63;4.20;;;0.70;99.90;;;;;;5096250;28;20076;-82
2023/01/20 03:57:03;;;;;;;7.03;3.75;;;0.70;99.90;;;;;;5096455;28;20028;-78
2023/01/20 03:59:33;;;;;;;7.27;3.97;;;0.80;99.90;;;;;;5096207;28;20070;-78
2023/01/20 04:02:02;;;;;;;6.30;4.17;;;0.70;99.90;;;;;;5096174;28;20143;-79
2023/01/20 04:04:30;;;;;;;6.73;4.03;;;0.70;99.90;;;;;;5095929;28;20027;-80
2023/01/20 04:06:57;;;;;;;8.57;4.90;;;0.70;99.90;;;;;;5096290;28;20028;-79
2023/01/20 04:09:27;;;;;;;9.10;4.47;;;0.70;99.90;;;;;;5113535;28;20173;-79
2023/01/20 04:11:53;;;;;;;8.97;4.80;;;0.80;99.90;;;;;;5096635;28;20073;-78
2023/01/20 04:14:19;;;;;;;7.43;4.40;;;0.80;99.90;;;;;;5095631;28;20023;-79
2023/01/20 04:16:59;;;;;;;11.13;5.67;;;0.80;99.90;;;;;;5096281;28;20026;-78
2023/01/20 04:19:25;;;;;;;11.97;5.47;;;0.80;99.90;;;;;;5095604;28;20480;-79
2023/01/20 04:22:20;;;;;;;11.53;5.20;;;0.90;99.90;;;;;;5090612;28;20446;-80
2023/01/20 04:25:11;;;;;;;10.53;5.50;;;0.90;99.90;;;;;;5080222;28;20050;-78
2023/01/20 04:27:37;;;;;;;11.43;5.00;;;0.90;99.90;;;;;;5095528;28;20119;-78
2023/01/20 04:30:03;;;;;;;10.27;5.03;;;0.90;99.90;;;;;;5096079;28;20052;-78
2023/01/20 04:32:28;;;;;;;10.03;4.70;;;0.90;99.90;;;;;;5113685;28;20035;-78
2023/01/20 04:34:54;;;;;;;11.97;5.13;;;0.90;99.90;;;;;;5095796;28;20020;-78
2023/01/20 04:37:19;;;;;;;11.77;5.70;;;0.90;99.90;;;;;;5095393;28;20452;-82
2023/01/20 04:39:45;;;;;;;9.70;5.33;;;0.90;99.90;;;;;;5113980;28;20031;-78
2023/01/20 04:42:11;;;;;;;9.77;4.87;;;0.90;99.90;;;;;;5095834;28;20468;-78
2023/01/20 04:44:37;;;;;;;13.17;5.87;;;0.80;99.90;;;;;;5113511;28;20028;-78
2023/01/20 04:47:02;;;;;;;14.33;6.30;;;0.70;99.90;;;;;;5093841;28;20027;-78
2023/01/20 04:49:28;;;;;;;10.07;5.80;;;0.60;99.90;;;;;;5075111;28;20047;-78
2023/01/20 04:51:54;;;;;;;13.83;5.77;;;0.70;99.90;;;;;;5075595;28;20434;-78
2023/01/20 04:54:19;;;;;;;11.73;5.43;;;0.70;99.90;;;;;;5092945;28;20475;-82
2023/01/20 04:56:47;;;;;;;11.10;5.07;;;0.60;99.90;;;;;;5075061;28;20218;-78
2023/01/20 04:59:13;;;;;;;8.33;4.83;;;0.60;99.90;;;;;;5075224;28;20477;-78
2023/01/20 05:01:38;;;;;;;8.67;4.13;;;0.50;99.90;;;;;;5074933;28;20024;-78
2023/01/20 05:04:04;;;;;;;9.63;4.73;;;0.50;99.90;;;;;;5075200;28;20032;-78
2023/01/20 05:06:29;;;;;;;7.60;4.63;;;0.50;99.90;;;;;;5074660;28;20421;-78
2023/01/20 05:08:55;;;;;;;8.20;4.23;;;0.40;99.90;;;;;;5093775;28;20020;-79
2023/01/20 05:11:21;;;;;;;12.10;4.40;;;0.40;99.90;;;;;;5078496;28;20080;-82
2023/01/20 05:13:46;;;;;;;10.37;4.40;;;0.40;99.90;;;;;;5078914;28;20024;-78
2023/01/20 05:16:12;;;;;;;8.77;4.90;;;0.40;99.90;;;;;;5078783;28;20031;-79
2023/01/20 05:18:37;;;;;;;8.13;4.17;;;0.40;99.90;;;;;;5078163;28;20044;-79
2023/01/20 05:21:04;;;;;;;5.87;3.83;;;0.40;99.90;;;;;;5078621;28;20024;-79
2023/01/20 05:23:30;;;;;;;6.93;3.87;;;0.30;99.90;;;;;;5078145;28;20093;-79
2023/01/20 05:25:55;;;;;;;7.17;4.13;;;0.30;99.90;;;;;;5078514;28;20027;-78
2023/01/20 05:28:21;;;;;;;6.87;4.50;;;0.30;99.90;;;;;;5095575;28;20039;-81
2023/01/20 05:30:47;;;;;;;7.33;4.03;;;0.20;99.90;;;;;;5078652;28;20052;-78
2023/01/20 05:33:13;;;;;;;6.43;3.60;;;0.20;99.90;;;;;;5078032;28;20024;-77
2023/01/20 05:35:39;;;;;;;6.97;3.87;;;0.20;99.90;;;;;;5077942;28;20244;-77
2023/01/20 05:38:05;;;;;;;6.93;4.20;;;0.20;99.90;;;;;;5078048;28;20492;-78
2023/01/20 05:40:30;;;;;;;7.03;3.90;;;0.10;99.90;;;;;;5098625;28;20028;-78
2023/01/20 05:43:00;;;;;;;8.57;4.20;;;0.10;99.90;;;;;;5116898;28;20117;-78
2023/01/20 05:45:25;;;;;;;6.23;3.90;;;0.10;99.90;;;;;;5098157;28;20524;-79
2023/01/20 05:47:56;;;;;;;8.93;4.50;;;0.10;99.90;;;;;;5098891;28;20052;-79
2023/01/20 05:50:22;;;;;;;7.43;4.10;;;0.10;99.90;;;;;;5116207;28;20100;-80
2023/01/20 05:52:48;;;;;;;8.17;4.20;;;0.10;99.90;;;;;;5116592;28;20065;-79
2023/01/20 05:55:13;;;;;;;6.37;4.00;;;0.10;99.90;;;;;;5098370;28;20049;-79
2023/01/20 05:57:39;;;;;;;7.97;4.73;;;0.10;99.90;;;;;;5116196;28;20479;-79
2023/01/20 06:00:06;;;;;;;7.53;4.40;;;0.00;99.90;;;;;;5098586;28;20110;-79
2023/01/20 06:02:31;;;;;;;6.70;3.90;;;0.00;99.90;;;;;;5098192;28;20027;-79
2023/01/20 06:05:00;;;;;;;5.47;3.50;;;-0.10;99.90;;;;;;5098371;28;20031;-79
2023/01/20 06:07:26;;;;;;;7.10;3.90;;;-0.10;99.90;;;;;;5098340;28;20027;-79
2023/01/20 06:09:52;;;;;;;7.33;3.80;;;-0.10;99.90;;;;;;5098415;28;20028;-79
2023/01/20 06:12:18;;;;;;;6.93;3.47;;;-0.10;99.90;;;;;;5097955;28;20031;-81
2023/01/20 06:14:43;;;;;;;8.67;4.00;;;-0.10;99.90;;;;;;5098209;28;20100;-79
2023/01/20 06:17:09;;;;;;;8.57;3.87;;;-0.10;99.90;;;;;;5097724;28;20032;-79
2023/01/20 06:19:35;;;;;;;7.03;4.07;;;0.00;99.90;;;;;;5097148;28;20472;-78
2023/01/20 06:22:01;;;;;;;6.37;3.17;;;0.00;99.90;;;;;;5097671;28;20053;-78
2023/01/20 06:24:26;;;;;;;7.93;3.77;;;0.10;99.90;;;;;;5115583;28;20098;-78
2023/01/20 06:26:52;;;;;;;5.60;3.67;;;0.20;99.90;;;;;;5098081;28;20032;-78
2023/01/20 06:29:18;;;;;;;6.93;3.90;;;0.10;99.90;;;;;;5097605;28;20024;-81
2023/01/20 06:31:44;;;;;;;7.03;3.87;;;0.10;99.90;;;;;;5115637;28;20027;-78
2023/01/20 06:34:10;;;;;;;6.43;3.70;;;0.10;99.90;;;;;;5097930;28;20024;-77
2023/01/20 06:36:36;;;;;;;8.57;4.33;;;0.10;99.90;;;;;;5115510;28;20087;-78
2023/01/20 06:39:01;;;;;;;7.03;3.30;;;0.20;99.90;;;;;;5097542;28;20127;-79
2023/01/20 06:41:27;;;;;;;8.93;3.93;;;0.20;99.90;;;;;;5115373;28;20024;-79
2023/01/20 06:43:53;;;;;;;7.23;3.73;;;0.10;99.90;;;;;;5097583;28;20080;-79
2023/01/20 06:46:18;;;;;;;6.67;3.70;;;0.10;99.90;;;;;;5097622;28;20084;-82
2023/01/20 06:48:45;;;;;;;6.30;3.60;;;0.10;99.90;;;;;;5115124;28;20476;-78
2023/01/20 06:51:22;;;;;;;9.13;4.00;;;0.10;99.90;;;;;;5097479;28;20522;-78
2023/01/20 06:53:48;;;;;;;6.13;3.80;;;0.10;99.90;;;;;;5115648;28;20092;-78
2023/01/20 06:56:14;;;;;;;7.70;4.10;;;0.10;99.90;;;;;;5109599;28;20090;-79
2023/01/20 06:58:40;;;;;;;10.73;4.87;;;0.10;99.90;;;;;;5096625;28;20055;-80
2023/01/20 07:01:11;;;;;;;10.77;5.10;;;0.10;99.90;;;;;;5115187;28;20051;-78
2023/01/20 07:03:37;;;;;;;13.60;6.20;;;0.10;99.90;;;;;;5076976;28;20527;-78
2023/01/20 07:06:26;;;;;;;12.90;5.50;;;0.10;99.90;;;;;;5076812;28;20028;-79
2023/01/20 07:08:52;;;;;;;9.47;5.27;;;0.10;99.90;;;;;;5076988;28;20556;-78
2023/01/20 07:11:18;;;;;;;8.87;4.53;;;0.10;99.90;;;;;;5094608;28;20055;-78
2023/01/20 07:13:44;;;;;;;10.57;5.03;;;0.10;99.90;;;;;;5094039;28;20028;-78
2023/01/20 07:16:10;;;;;;;7.77;4.33;;;0.00;99.90;;;;;;5083123;28;20031;-80
2023/01/20 07:18:36;;;;;;;11.47;4.30;;;0.00;99.90;;;;;;5115456;28;20459;-78
2023/01/20 07:21:03;;;;;;;12.70;4.47;;;0.00;99.90;;;;;;5089569;28;20024;-78
2023/01/20 07:23:31;;;;;;;9.73;4.47;;;0.00;99.90;;;;;;5092938;28;20063;-78
2023/01/20 07:26:17;;;;;;;8.37;4.30;;;0.00;99.90;;;;;;5112911;28;20020;-78
2023/01/20 07:28:43;;;;;;;8.33;4.60;;;0.00;99.90;;;;;;5108066;28;20065;-79
2023/01/20 07:31:13;;;;;;;7.57;4.10;;;0.00;99.90;;;;;;5114020;28;20051;-78
2023/01/20 07:33:39;;;;;;;10.27;4.33;;;0.00;99.90;;;;;;5094549;28;20032;-80
2023/01/20 07:36:06;;;;;;;9.27;4.53;;;0.00;99.90;;;;;;5096417;28;20502;-79
2023/01/20 07:38:31;;;;;;;7.33;3.97;;;0.00;99.90;;;;;;5095545;28;20115;-79
2023/01/20 07:40:58;;;;;;;8.37;4.27;;;0.00;99.90;;;;;;5114655;28;20431;-79
2023/01/20 07:43:24;;;;;;;7.30;4.10;;;0.00;99.90;;;;;;5095546;28;20024;-82
2023/01/20 07:45:52;;;;;;;8.67;4.07;;;-0.10;99.90;;;;;;5083698;28;20028;-75
2023/01/20 07:48:18;;;;;;;7.20;4.43;;;-0.10;99.90;;;;;;5113364;28;20028;-78
2023/01/20 07:50:43;;;;;;;6.67;4.00;;;0.00;99.90;;;;;;5112424;28;20024;-78
2023/01/20 07:53:09;;;;;;;9.73;4.10;;;0.00;99.90;;;;;;5113289;28;20085;-77
2023/01/20 07:55:35;;;;;;;7.17;4.37;;;0.00;99.90;;;;;;5112693;28;20020;-78
2023/01/20 07:58:01;;;;;;;6.37;4.37;;;0.00;99.90;;;;;;5095524;28;20401;-78
2023/01/20 08:00:26;;;;;;;7.63;4.00;;;0.10;99.90;;;;;;5095170;28;20031;-78
2023/01/20 08:02:52;;;;;;;11.47;4.50;;;0.10;99.90;;;;;;5096112;28;20023;-78
2023/01/20 08:05:17;;;;;;;8.50;4.40;;;0.10;99.90;;;;;;5095128;28;20114;-78
2023/01/20 08:07:43;;;;;;;10.70;4.97;;;0.10;99.90;;;;;;5095449;28;20030;-81
2023/01/20 08:10:09;;;;;;;10.57;5.07;;;0.10;99.90;;;;;;5095948;28;20059;-80
2023/01/20 08:12:34;;;;;;;12.33;5.00;;;0.20;99.90;;;;;;5094935;28;20384;-79
2023/01/20 08:15:00;;;;;;;16.27;5.87;;;0.20;99.90;;;;;;5108937;28;20074;-77
2023/01/20 08:17:25;;;;;;;11.67;6.00;;;0.20;99.90;;;;;;5094118;28;20028;-76
2023/01/20 08:19:51;;;;;;;12.87;5.53;;;0.30;99.90;;;;;;5113109;28;20030;-76
2023/01/20 08:22:17;;;;;;;14.57;5.57;;;0.30;99.90;;;;;;5094684;28;20106;-75
2023/01/20 08:24:42;;;;;;;11.40;5.80;;;0.30;99.90;;;;;;5094125;28;20024;-76
2023/01/20 08:27:08;;;;;;;14.37;5.90;;;0.30;99.90;;;;;;5091418;28;20114;-77
2023/01/20 08:29:33;;;;;;;13.10;6.30;;;0.30;99.90;;;;;;5087207;28;20142;-76
2023/01/20 08:31:59;;;;;;;16.73;7.03;;;0.40;99.90;;;;;;5112644;28;20028;-76
2023/01/20 08:34:26;;;;;;;13.70;6.50;;;0.40;99.90;;;;;;5093096;28;20020;-76
2023/01/20 08:36:52;;;;;;;13.70;6.43;;;0.40;99.90;;;;;;5111734;28;20031;-76
2023/01/20 08:39:19;;;;;;;12.67;6.67;;;0.50;99.90;;;;;;5112161;28;20059;-77
2023/01/20 08:41:46;;;;;;;12.67;6.13;;;0.50;99.90;;;;;;5111042;28;20080;-78
2023/01/20 08:44:14;;;;;;;14.87;6.87;;;0.50;99.90;;;;;;5095800;28;20020;-78
2023/01/20 08:46:40;;;;;;;15.13;7.27;;;0.50;99.90;;;;;;5096954;28;20104;-78
2023/01/20 08:49:07;;;;;;;11.43;6.77;;;0.60;99.90;;;;;;5097931;28;20035;-77
2023/01/20 08:51:33;;;;;;;16.27;7.10;;;0.60;99.90;;;;;;5097686;28;20032;-77
2023/01/20 08:54:00;;;;;;;14.77;7.43;;;0.60;99.90;;;;;;5112710;28;20043;-78
2023/01/20 08:56:26;;;;;;;13.63;6.97;;;0.60;99.90;;;;;;5097360;28;20058;-77
2023/01/20 08:58:52;;;;;;;13.67;7.50;;;0.70;99.90;;;;;;5093898;28;20028;-78
2023/01/20 09:01:24;;;;;;;14.37;7.03;;;0.70;99.90;;;;;;5097802;28;20039;-76
2023/01/20 09:03:50;;;;;;;14.27;7.50;;;0.70;99.90;;;;;;5090405;28;20027;-75
2023/01/20 09:06:16;;;;;;;11.70;7.60;;;0.80;99.90;;;;;;5098000;28;20068;-76
2023/01/20 09:08:42;;;;;;;13.10;6.80;;;0.90;99.90;;;;;;5115868;28;20032;-75
2023/01/20 09:11:11;;;;;;;16.70;8.03;;;0.90;99.90;;;;;;5112249;28;20024;-77
2023/01/20 09:13:37;;;;;;;15.67;8.27;;;0.90;99.90;;;;;;5097855;28;20023;-80
2023/01/20 09:16:04;;;;;;;14.60;7.80;;;0.90;99.90;;;;;;5086680;28;20019;-81
2023/01/20 09:18:33;;;;;;;16.20;7.83;;;1.00;99.90;;;;;;5104879;28;20082;-81
2023/01/20 09:21:06;;;;;;;19.00;8.23;;;1.00;99.90;;;;;;5102408;28;20032;-77
2023/01/20 09:23:34;;;;;;;16.93;8.30;;;1.10;99.90;;;;;;5110910;28;20034;-77
2023/01/20 09:26:01;;;;;;;16.13;8.20;;;1.10;99.90;;;;;;5116260;28;20030;-77
2023/01/20 09:28:27;;;;;;;18.20;8.30;;;1.20;99.90;;;;;;5115175;28;20469;-76
2023/01/20 09:31:00;;;;;;;16.90;8.27;;;1.20;99.90;;;;;;5098162;28;20035;-76
2023/01/20 09:33:26;;;;;;;20.47;8.77;;;1.30;99.90;;;;;;5101882;28;20019;-76
2023/01/20 09:35:58;;;;;;;17.00;7.83;;;1.30;99.90;;;;;;5098744;28;20023;-76
2023/01/20 09:44:18;;;;;;;15.10;8.50;;;1.50;99.90;;;;;;5113487;28;20092;-76
2023/01/20 09:47:18;;;;;;;16.70;8.43;;;1.50;99.90;;;;;;5103245;28;20050;-76
2023/01/20 09:55:41;;;;;;;15.63;8.03;;;1.50;99.90;;;;;;5115092;28;20581;-76
2023/01/20 09:58:17;;;;;;;15.27;7.43;;;1.60;99.90;;;;;;5099009;28;20024;-77
2023/01/20 10:00:48;;;;;;;14.53;7.77;;;1.60;99.90;;;;;;5107507;28;20019;-77
2023/01/20 10:03:35;;;;;;;14.27;7.05;;;1.70;99.90;;;;;;5107275;28;20536;-77
2023/01/20 10:06:07;;;;;;;16.60;7.43;;;1.70;99.90;;;;;;5097217;28;20455;-76
2023/01/20 10:08:41;;;;;;;12.95;6.90;;;1.70;99.90;;;;;;5114287;28;20027;-76
2023/01/20 10:11:17;;;;;;;14.03;7.03;;;1.70;99.90;;;;;;5114409;28;20106;-77
2023/01/20 10:13:54;;;;;;;12.50;6.37;;;1.80;99.90;;;;;;5110110;28;20027;-77
2023/01/20 10:16:35;;;;;;;14.23;7.00;;;1.80;99.90;;;;;;5087609;28;20024;-77
2023/01/20 10:19:07;;;;;;;11.97;6.30;;;1.80;99.90;;;;;;5093561;28;20087;-77
2023/01/20 10:21:44;;;;;;;12.57;6.82;;;1.80;99.90;;;;;;5109929;28;20062;-77
2023/01/20 10:24:21;;;;;;;13.20;6.17;;;1.90;99.90;;;;;;5076522;28;20063;-77
2023/01/20 10:26:59;;;;;;;14.30;6.90;;;1.90;99.90;;;;;;5075764;28;20028;-77
2023/01/20 10:29:39;;;;;;;12.03;6.83;;;1.90;99.90;;;;;;5109600;28;20031;-77
2023/01/20 10:32:35;;;;;;;15.07;7.00;;;2.00;99.90;;;;;;5114520;28;20023;-77
2023/01/20 10:35:07;;;;;;;14.67;6.83;;;2.10;99.90;;;;;;5096575;28;20031;-77
2023/01/20 10:37:34;;;;;;;16.00;7.63;;;2.30;99.90;;;;;;5095637;28;20036;-78
2023/01/20 10:40:15;;;;;;;17.73;7.60;;;2.30;99.90;;;;;;5096351;28;20023;-78
2023/01/20 10:42:47;;;;;;;16.07;7.57;;;2.30;99.90;;;;;;5092811;28;20122;-77
2023/01/20 10:45:23;;;;;;;15.98;7.50;;;2.30;99.90;;;;;;5083927;28;20036;-77
2023/01/20 10:48:04;;;;;;;17.63;8.20;;;2.30;99.90;;;;;;5085186;28;20058;-79
2023/01/20 10:50:52;;;;;;;14.97;7.40;;;2.30;99.90;;;;;;5085266;28;20051;-78
2023/01/20 10:53:41;;;;;;;17.00;7.90;;;2.30;99.90;;;;;;5102452;28;20051;-79
2023/01/20 10:56:32;;;;;;;14.27;7.80;;;2.40;99.90;;;;;;5095722;28;20028;-78
2023/01/20 10:59:06;;;;;;;15.50;8.20;;;2.50;99.90;;;;;;5096562;28;20380;-79
2023/01/20 11:01:31;;;;;;;17.80;8.43;;;2.60;99.90;;;;;;5095944;28;20031;-79
2023/01/20 11:03:57;;;;;;;16.73;7.80;;;2.70;99.90;;;;;;5096769;28;20031;-79
2023/01/20 11:06:26;;;;;;;13.10;8.03;;;2.80;99.90;;;;;;5113572;28;20020;-78
2023/01/20 11:08:53;;;;;;;16.73;8.50;;;2.80;99.90;;;;;;5099134;28;20034;-78
2023/01/20 11:11:24;;;;;;;16.00;8.47;;;2.80;99.90;;;;;;5095104;28;20461;-79
2023/01/20 11:13:51;;;;;;;16.07;8.67;;;2.90;99.90;;;;;;5114449;28;20028;-79
2023/01/20 11:16:30;;;;;;;14.00;7.87;;;2.90;99.90;;;;;;5093511;28;20374;-79
2023/01/20 11:19:04;;;;;;;19.10;9.13;;;2.80;99.90;;;;;;5074048;28;20113;-79
2023/01/20 11:21:32;;;;;;;14.37;8.07;;;2.80;99.90;;;;;;5092375;28;20024;-79
2023/01/20 11:23:59;;;;;;;15.23;7.57;;;2.70;99.90;;;;;;5092085;28;20028;-76
2023/01/20 11:26:32;;;;;;;18.17;8.37;;;2.80;99.90;;;;;;5092528;28;20016;-77
2023/01/20 11:29:00;;;;;;;17.23;8.47;;;2.80;99.90;;;;;;5091871;28;20454;-77
2023/01/20 11:31:48;;;;;;;13.47;7.90;;;2.90;99.90;;;;;;5091181;28;20500;-77
2023/01/20 11:34:30;;;;;;;17.60;8.23;;;3.00;99.90;;;;;;5084899;28;20090;-77
2023/01/20 11:37:05;;;;;;;17.77;8.23;;;3.00;99.90;;;;;;5091749;28;20028;-77
2023/01/20 11:39:40;;;;;;;17.00;7.43;;;3.10;99.90;;;;;;5091839;28;20028;-79
2023/01/20 11:42:20;;;;;;;17.70;8.10;;;3.20;99.90;;;;;;5090470;28;20085;-78
2023/01/20 11:44:49;;;;;;;15.37;8.10;;;3.20;99.90;;;;;;5089817;28;20103;-80
2023/01/20 11:47:27;;;;;;;16.37;8.17;;;3.20;99.90;;;;;;5091874;28;20020;-81
2023/01/20 11:50:07;;;;;;;16.83;9.10;;;3.20;99.90;;;;;;5092678;28;20024;-80
2023/01/20 11:52:42;;;;;;;16.50;8.60;;;3.10;99.90;;;;;;5091886;28;20027;-81
2023/01/20 11:55:16;;;;;;;17.10;8.37;;;3.20;99.90;;;;;;5085954;28;20020;-81
2023/01/20 11:57:47;;;;;;;15.60;8.60;;;3.20;99.90;;;;;;5090535;28;20024;-77
2023/01/20 12:00:18;;;;;;;14.53;8.40;;;3.30;99.90;;;;;;5085649;28;20114;-77
2023/01/20 12:03:13;;;;;;;14.05;8.15;;;3.40;99.90;;;;;;5092563;28;20020;-77
2023/01/20 12:05:43;;;;;;;15.60;8.23;;;3.50;99.90;;;;;;5063866;28;20043;-76
2023/01/20 12:08:17;;;;;;;14.20;7.93;;;3.40;99.90;;;;;;5091191;28;20477;-77
2023/01/20 12:10:44;;;;;;;16.03;8.50;;;3.50;99.90;;;;;;5090948;28;20516;-76
2023/01/20 12:13:21;;;;;;;21.40;8.70;;;3.60;99.90;;;;;;5091062;28;20111;-76
2023/01/20 12:15:53;;;;;;;14.77;8.03;;;4.00;99.90;;;;;;5089511;28;20032;-78
2023/01/20 12:18:37;;;;;;;12.80;7.67;;;4.10;99.90;;;;;;5101250;28;20140;-77
2023/01/20 12:21:23;;;;;;;18.43;8.00;;;4.00;99.90;;;;;;5086084;28;20063;-77
2023/01/20 12:23:48;;;;;;;17.03;7.70;;;3.90;99.90;;;;;;5094442;28;20058;-77
2023/01/20 12:26:16;;;;;;;13.23;7.40;;;3.80;99.90;;;;;;5094781;28;20045;-76
2023/01/20 12:29:16;;;;;;;16.30;7.90;;;3.80;99.90;;;;;;5093451;28;20110;-76
2023/01/20 12:31:44;;;;;;;12.33;7.30;;;3.70;99.90;;;;;;5093949;28;20694;-77
2023/01/20 12:34:14;;;;;;;11.90;6.60;;;3.70;99.90;;;;;;5094431;28;20533;-76
2023/01/20 12:36:46;;;;;;;13.03;7.20;;;3.80;99.90;;;;;;5111991;28;20477;-76
2023/01/20 12:39:39;;;;;;;13.30;7.43;;;3.70;99.90;;;;;;5094197;28;20036;-76
2023/01/20 12:42:35;;;;;;;14.83;7.23;;;3.70;99.90;;;;;;5112727;28;20488;-77
2023/01/20 12:45:20;;;;;;;15.97;8.70;;;3.60;99.90;;;;;;5080585;28;20028;-77
2023/01/20 12:48:21;;;;;;;13.07;7.13;;;3.70;99.90;;;;;;5092595;28;20023;-76
2023/01/20 12:51:10;;;;;;;13.63;7.20;;;3.70;99.90;;;;;;5087551;28;20364;-78
2023/01/20 12:53:47;;;;;;;12.57;7.30;;;4.10;99.90;;;;;;5090442;28;20076;-78
2023/01/20 12:56:31;;;;;;;13.23;7.50;;;4.10;99.90;;;;;;5108382;28;20428;-76
2023/01/20 12:59:07;;;;;;;13.07;7.07;;;4.20;99.90;;;;;;5103041;28;20038;-77
2023/01/20 13:02:02;;;;;;;12.17;7.13;;;4.60;99.90;;;;;;5093817;28;20028;-77
2023/01/20 13:04:37;;;;;;;12.23;6.50;;;5.00;99.90;;;;;;5091334;28;20028;-77
2023/01/20 13:07:14;;;;;;;12.37;6.70;;;5.30;99.90;;;;;;5103911;28;20027;-77
2023/01/20 13:09:55;;;;;;;13.60;6.43;;;5.20;99.90;;;;;;5111045;28;20106;-77
2023/01/20 13:12:36;;;;;;;9.77;6.30;;;4.80;99.90;;;;;;5111722;28;20020;-76
2023/01/20 13:15:17;;;;;;;12.85;6.30;;;4.60;99.90;;;;;;5105811;28;20031;-76
2023/01/20 13:17:46;;;;;;;11.17;6.30;;;4.70;99.90;;;;;;5090096;28;20100;-76
2023/01/20 13:20:23;;;;;;;13.30;6.40;;;4.70;99.90;;;;;;5109059;28;20031;-79